createdAt,value
2023-01-29T00:00:53.469Z,63.08
2023-01-29T00:02:25.001Z,63.32
2023-01-29T00:03:56.645Z,63.38
2023-01-29T00:05:28.751Z,63.66
2023-01-29T00:07:00.349Z,63.28
2023-01-29T00:08:34.429Z,63.41
2023-01-29T00:10:06.366Z,63.83
2023-01-29T00:11:37.888Z,63.11
2023-01-29T00:13:09.406Z,63.69
2023-01-29T00:14:40.841Z,63.39
2023-01-29T00:16:12.590Z,63.49
2023-01-29T00:17:44.769Z,63.82
2023-01-29T00:19:17.418Z,63.11
2023-01-29T00:20:48.921Z,63.52
2023-01-29T00:22:20.444Z,63.48
2023-01-29T00:23:55.170Z,63.73
2023-01-29T00:25:26.725Z,62.95
2023-01-29T00:26:58.189Z,63.75
2023-01-29T00:28:30.720Z,63.14
2023-01-29T00:30:19.244Z,62.66
2023-01-29T00:31:51.161Z,62.96
2023-01-29T00:33:22.746Z,63.21
2023-01-29T00:34:54.212Z,63.95
2023-01-29T00:36:26.015Z,63.77
2023-01-29T00:37:57.999Z,64.11
2023-01-29T00:39:47.453Z,63.52
2023-01-29T00:41:38.970Z,64.69
2023-01-29T00:43:28.867Z,64.61
2023-01-29T00:45:00.372Z,64.63
2023-01-29T00:46:31.876Z,64.15
2023-01-29T00:48:03.501Z,65.01
2023-01-29T00:49:35.040Z,64.87
2023-01-29T00:51:06.530Z,64.08
2023-01-29T00:52:38.445Z,64.23
2023-01-29T00:54:10.391Z,64.21
2023-01-29T00:55:44.446Z,63.93
2023-01-29T00:57:15.910Z,63.87
2023-01-29T00:58:47.387Z,63.38
2023-01-29T01:00:19.542Z,64.43
2023-01-29T01:02:10.004Z,64.03
2023-01-29T01:03:42.128Z,63.68
2023-01-29T01:05:18.053Z,64.08
2023-01-29T01:06:49.747Z,64.39
2023-01-29T01:08:40.155Z,64.28
2023-01-29T01:10:22.606Z,63.69
2023-01-29T01:11:55.537Z,64.38
2023-01-29T01:13:27.906Z,64.15
2023-01-29T01:14:59.491Z,63.48
2023-01-29T01:16:30.988Z,64.18
2023-01-29T01:18:03.353Z,63.80
2023-01-29T01:19:34.837Z,64.04
2023-01-29T01:21:06.385Z,63.79
2023-01-29T01:22:37.888Z,63.67
2023-01-29T01:24:09.439Z,63.16
2023-01-29T01:25:41.525Z,63.46
2023-01-29T01:27:14.499Z,63.46
2023-01-29T01:28:45.977Z,63.08
2023-01-29T01:30:18.089Z,63.62
2023-01-29T01:31:50.183Z,63.34
2023-01-29T01:33:22.081Z,63.57
2023-01-29T01:34:53.885Z,63.50
2023-01-29T01:36:25.436Z,63.34
2023-01-29T01:37:56.909Z,63.41
2023-01-29T01:39:28.443Z,62.88
2023-01-29T01:40:59.941Z,62.68
2023-01-29T01:42:32.809Z,63.17
2023-01-29T01:44:05.150Z,63.82
2023-01-29T01:45:36.899Z,62.86
2023-01-29T01:47:08.486Z,64.30
2023-01-29T01:48:40.492Z,63.88
2023-01-29T01:50:15.276Z,63.66
2023-01-29T01:51:48.580Z,64.09
2023-01-29T01:53:22.540Z,63.80
2023-01-29T01:54:54.075Z,63.78
2023-01-29T01:56:27.801Z,64.61
2023-01-29T01:58:02.959Z,63.96
2023-01-29T01:59:35.739Z,64.34
2023-01-29T02:01:08.193Z,63.76
2023-01-29T02:02:59.269Z,63.95
2023-01-29T02:04:49.335Z,63.97
2023-01-29T02:06:39.409Z,63.62
2023-01-29T02:08:30.231Z,63.67
2023-01-29T02:10:04.186Z,63.61
2023-01-29T02:11:36.141Z,63.52
2023-01-29T02:13:09.424Z,63.45
2023-01-29T02:14:42.213Z,63.61
2023-01-29T02:16:13.675Z,63.43
2023-01-29T02:17:48.185Z,63.53
2023-01-29T02:19:29.554Z,63.12
2023-01-29T02:21:07.588Z,63.95
2023-01-29T02:22:55.077Z,63.33
2023-01-29T02:24:42.381Z,63.44
2023-01-29T02:26:18.659Z,63.31
2023-01-29T02:28:16.106Z,63.86
2023-01-29T02:29:54.203Z,63.20
2023-01-29T02:31:29.117Z,62.89
2023-01-29T02:33:07.498Z,63.03
2023-01-29T02:35:01.089Z,63.52
2023-01-29T02:36:35.860Z,62.97
2023-01-29T02:38:11.805Z,63.02
2023-01-29T02:39:48.970Z,62.63
2023-01-29T02:41:25.980Z,63.27
2023-01-29T02:43:02.951Z,62.72
2023-01-29T02:44:38.988Z,62.88
2023-01-29T02:46:13.506Z,63.27
2023-01-29T02:47:48.491Z,62.67
2023-01-29T02:49:23.405Z,62.70
2023-01-29T02:50:58.865Z,63.00
2023-01-29T02:52:35.405Z,62.91
2023-01-29T02:54:13.749Z,62.93
2023-01-29T02:55:48.007Z,62.18
2023-01-29T02:57:21.473Z,62.51
2023-01-29T02:58:54.841Z,61.73
2023-01-29T03:00:30.279Z,62.50
2023-01-29T03:02:04.795Z,62.53
2023-01-29T03:03:39.576Z,62.39
2023-01-29T03:05:13.149Z,62.74
2023-01-29T03:06:48.091Z,63.68
2023-01-29T03:08:22.980Z,63.67
2023-01-29T03:09:55.627Z,63.89
2023-01-29T03:11:30.099Z,63.48
2023-01-29T03:13:06.298Z,63.63
2023-01-29T03:14:58.332Z,64.39
2023-01-29T03:16:33.172Z,64.79
2023-01-29T03:18:08.544Z,64.24
2023-01-29T03:19:41.502Z,64.58
2023-01-29T03:21:43.071Z,64.62
2023-01-29T03:23:27.202Z,64.68
2023-01-29T03:25:18.558Z,65.14
2023-01-29T03:27:11.681Z,64.69
2023-01-29T03:29:07.283Z,65.05
2023-01-29T03:31:01.785Z,64.37
2023-01-29T03:32:44.559Z,64.40
2023-01-29T03:34:24.028Z,64.88
2023-01-29T03:36:00.753Z,64.17
2023-01-29T03:37:34.966Z,64.04
2023-01-29T03:39:11.370Z,64.41
2023-01-29T03:40:47.546Z,63.64
2023-01-29T03:42:24.576Z,63.75
2023-01-29T03:44:01.136Z,63.74
2023-01-29T03:45:36.818Z,63.88
2023-01-29T03:47:14.764Z,64.27
2023-01-29T03:48:51.886Z,64.19
2023-01-29T03:50:30.934Z,63.67
2023-01-29T03:52:08.908Z,63.43
2023-01-29T03:53:43.927Z,63.88
2023-01-29T03:55:18.559Z,63.99
2023-01-29T03:56:55.427Z,64.21
2023-01-29T03:58:34.697Z,63.95
2023-01-29T04:00:08.820Z,64.64
2023-01-29T04:02:00.692Z,64.05
2023-01-29T04:03:35.102Z,64.55
2023-01-29T04:05:13.832Z,63.98
2023-01-29T04:06:58.307Z,65.11
2023-01-29T04:08:31.068Z,65.36
2023-01-29T04:10:07.914Z,65.11
2023-01-29T04:11:43.554Z,65.21
2023-01-29T04:13:15.997Z,64.98
2023-01-29T04:14:50.222Z,65.22
2023-01-29T04:16:26.531Z,65.35
2023-01-29T04:18:14.763Z,65.20
2023-01-29T04:20:06.984Z,65.69
2023-01-29T04:21:40.440Z,64.84
2023-01-29T04:23:19.993Z,65.11
2023-01-29T04:24:53.817Z,64.89
2023-01-29T04:26:31.097Z,64.69
2023-01-29T04:28:08.655Z,64.92
2023-01-29T04:29:47.817Z,65.55
2023-01-29T04:31:20.986Z,65.50
2023-01-29T04:32:59.751Z,66.32
2023-01-29T04:34:36.239Z,65.53
2023-01-29T04:36:17.800Z,65.88
2023-01-29T04:37:56.819Z,65.53
2023-01-29T04:39:31.999Z,66.51
2023-01-29T04:41:05.317Z,66.48
2023-01-29T04:42:41.569Z,66.75
2023-01-29T04:44:16.978Z,66.99
2023-01-29T04:45:53.295Z,67.04
2023-01-29T04:47:29.285Z,66.49
2023-01-29T04:49:05.358Z,66.11
2023-01-29T04:50:38.260Z,66.03
2023-01-29T04:52:15.518Z,66.19
2023-01-29T04:53:50.321Z,66.24
2023-01-29T04:55:25.241Z,65.34
2023-01-29T04:57:01.166Z,65.28
2023-01-29T04:58:34.821Z,65.61
2023-01-29T05:00:10.590Z,65.27
2023-01-29T05:01:43.108Z,65.31
2023-01-29T05:03:15.393Z,65.24
2023-01-29T05:04:47.736Z,65.86
2023-01-29T05:06:20.795Z,65.76
2023-01-29T05:07:52.739Z,65.25
2023-01-29T05:09:25.950Z,65.01
2023-01-29T05:10:58.705Z,65.29
2023-01-29T05:12:30.893Z,65.05
2023-01-29T05:14:03.754Z,64.75
2023-01-29T05:15:37.325Z,64.69
2023-01-29T05:17:10.395Z,64.46
2023-01-29T05:18:42.477Z,64.65
2023-01-29T05:20:14.390Z,64.81
2023-01-29T05:21:47.936Z,64.84
2023-01-29T05:23:20.627Z,64.55
2023-01-29T05:24:53.439Z,64.35
2023-01-29T05:26:43.677Z,64.61
2023-01-29T05:28:18.321Z,64.26
2023-01-29T05:29:49.909Z,64.85
2023-01-29T05:31:21.471Z,65.48
2023-01-29T05:32:53.463Z,65.35
2023-01-29T05:34:25.015Z,65.34
2023-01-29T05:35:58.129Z,65.73
2023-01-29T05:37:29.665Z,65.93
2023-01-29T05:39:01.199Z,66.25
2023-01-29T05:40:34.064Z,66.22
2023-01-29T05:42:05.624Z,66.00
2023-01-29T05:43:37.104Z,66.52
2023-01-29T05:45:09.231Z,66.11
2023-01-29T05:46:40.753Z,66.42
2023-01-29T05:48:12.286Z,66.80
2023-01-29T05:49:43.772Z,66.84
2023-01-29T05:51:15.228Z,66.61
2023-01-29T05:52:46.693Z,67.10
2023-01-29T05:54:18.200Z,66.69
2023-01-29T05:55:51.098Z,67.23
2023-01-29T05:57:22.692Z,66.62
2023-01-29T05:58:54.610Z,66.83
2023-01-29T06:00:26.212Z,66.83
2023-01-29T06:01:58.143Z,66.38
2023-01-29T06:03:29.598Z,66.35
2023-01-29T06:05:01.032Z,66.22
2023-01-29T06:06:32.508Z,67.00
2023-01-29T06:08:04.505Z,67.00
2023-01-29T06:09:35.933Z,66.50
2023-01-29T06:11:09.548Z,66.66
2023-01-29T06:12:41.117Z,66.80
2023-01-29T06:14:12.635Z,66.73
2023-01-29T06:15:44.164Z,66.86
2023-01-29T06:17:15.683Z,66.64
2023-01-29T06:18:47.136Z,66.65
2023-01-29T06:20:18.969Z,67.01
2023-01-29T06:21:50.657Z,66.56
2023-01-29T06:23:22.263Z,66.70
2023-01-29T06:24:53.714Z,66.90
2023-01-29T06:26:26.525Z,66.36
2023-01-29T06:27:59.532Z,66.31
2023-01-29T06:29:31.159Z,65.89
2023-01-29T06:31:23.817Z,66.57
2023-01-29T06:32:55.576Z,66.27
2023-01-29T06:34:27.033Z,65.74
2023-01-29T06:35:58.847Z,65.84
2023-01-29T06:37:30.354Z,65.83
2023-01-29T06:39:02.110Z,65.64
2023-01-29T06:40:33.580Z,64.67
2023-01-29T06:42:06.419Z,65.03
2023-01-29T06:43:37.896Z,64.99
2023-01-29T06:45:10.113Z,64.91
2023-01-29T06:46:41.653Z,65.19
2023-01-29T06:48:13.139Z,65.25
2023-01-29T06:49:44.815Z,64.73
2023-01-29T06:51:16.372Z,65.13
2023-01-29T06:52:47.834Z,65.66
2023-01-29T06:54:19.277Z,65.69
2023-01-29T06:55:53.637Z,65.15
2023-01-29T06:57:28.471Z,65.22
2023-01-29T06:59:00.132Z,65.47
2023-01-29T07:00:31.671Z,65.46
2023-01-29T07:02:03.251Z,65.88
2023-01-29T07:03:34.784Z,66.41
2023-01-29T07:05:06.472Z,66.21
2023-01-29T07:06:37.971Z,66.71
2023-01-29T07:08:12.004Z,65.89
2023-01-29T07:09:43.528Z,66.66
2023-01-29T07:11:15.014Z,66.47
2023-01-29T07:12:47.887Z,66.00
2023-01-29T07:14:19.453Z,66.56
2023-01-29T07:15:51.171Z,66.41
2023-01-29T07:17:22.700Z,66.01
2023-01-29T07:18:54.171Z,66.08
2023-01-29T07:20:26.532Z,67.06
2023-01-29T07:21:58.100Z,66.79
2023-01-29T07:23:29.587Z,65.98
2023-01-29T07:25:01.103Z,67.00
2023-01-29T07:26:32.599Z,67.07
2023-01-29T07:28:05.632Z,66.81
2023-01-29T07:29:37.142Z,66.86
2023-01-29T07:31:11.637Z,66.50
2023-01-29T07:32:43.153Z,66.72
2023-01-29T07:34:14.648Z,66.57
2023-01-29T07:35:46.132Z,66.29
2023-01-29T07:37:17.605Z,66.62
2023-01-29T07:38:50.293Z,66.42
2023-01-29T07:40:21.763Z,66.32
2023-01-29T07:41:53.247Z,66.38
2023-01-29T07:43:29.015Z,66.53
2023-01-29T07:45:00.471Z,66.33
2023-01-29T07:46:31.947Z,65.69
2023-01-29T07:48:04.960Z,66.46
2023-01-29T07:49:36.484Z,66.33
2023-01-29T07:51:07.986Z,66.35
2023-01-29T07:52:39.754Z,66.74
2023-01-29T07:54:11.216Z,66.44
2023-01-29T07:55:44.064Z,66.24
2023-01-29T07:57:15.868Z,66.15
2023-01-29T07:58:48.794Z,66.35
2023-01-29T08:00:20.884Z,65.35
2023-01-29T08:01:52.866Z,65.66
2023-01-29T08:03:24.488Z,65.16
2023-01-29T08:04:56.015Z,64.61
2023-01-29T08:06:27.566Z,65.23
2023-01-29T08:08:06.554Z,64.55
2023-01-29T08:09:38.681Z,64.29
2023-01-29T08:11:10.146Z,64.65
2023-01-29T08:12:41.633Z,64.71
2023-01-29T08:14:14.466Z,64.66
2023-01-29T08:15:46.119Z,65.30
2023-01-29T08:17:17.647Z,65.15
2023-01-29T08:18:49.163Z,65.03
2023-01-29T08:20:21.197Z,65.11
2023-01-29T08:21:52.693Z,64.74
2023-01-29T08:23:24.261Z,65.17
2023-01-29T08:25:06.451Z,65.13
2023-01-29T08:26:39.431Z,65.87
2023-01-29T08:28:11.805Z,65.57
2023-01-29T08:29:44.650Z,65.48
2023-01-29T08:31:16.787Z,64.98
2023-01-29T08:32:48.291Z,64.50
2023-01-29T08:34:19.835Z,63.75
2023-01-29T08:35:51.653Z,64.06
2023-01-29T08:37:23.303Z,63.65
2023-01-29T08:38:54.825Z,64.36
2023-01-29T08:40:26.992Z,64.70
2023-01-29T08:41:58.564Z,64.34
2023-01-29T08:43:30.161Z,65.10
2023-01-29T08:45:03.369Z,64.86
2023-01-29T08:46:34.919Z,64.76
2023-01-29T08:48:06.649Z,65.28
2023-01-29T08:49:38.133Z,65.11
2023-01-29T08:51:09.663Z,64.99
2023-01-29T08:52:41.202Z,65.21
2023-01-29T08:54:12.717Z,65.39
2023-01-29T08:55:45.830Z,64.91
2023-01-29T08:57:17.324Z,64.88
2023-01-29T08:58:48.950Z,65.32
2023-01-29T09:00:22.890Z,64.50
2023-01-29T09:01:54.368Z,64.86
2023-01-29T09:03:25.894Z,64.28
2023-01-29T09:04:57.430Z,64.46
2023-01-29T09:06:28.894Z,64.41
2023-01-29T09:08:00.724Z,64.37
2023-01-29T09:09:32.154Z,64.32
2023-01-29T09:11:03.817Z,64.05
2023-01-29T09:12:35.308Z,63.92
2023-01-29T09:14:06.905Z,64.04
2023-01-29T09:15:39.830Z,63.89
2023-01-29T09:17:11.353Z,63.91
2023-01-29T09:18:42.847Z,63.76
2023-01-29T09:20:14.370Z,63.92
2023-01-29T09:21:46.357Z,64.12
2023-01-29T09:23:17.880Z,64.13
2023-01-29T09:24:49.431Z,64.40
2023-01-29T09:26:21.096Z,64.55
2023-01-29T09:27:53.857Z,64.77
2023-01-29T09:29:25.430Z,64.78
2023-01-29T09:31:00.441Z,64.93
2023-01-29T09:34:23.587Z,64.78
2023-01-29T09:35:55.089Z,64.76
2023-01-29T09:37:26.617Z,64.87
2023-01-29T09:38:58.163Z,64.91
2023-01-29T09:40:32.264Z,65.12
2023-01-29T09:42:08.055Z,64.73
2023-01-29T09:43:42.861Z,65.25
2023-01-29T09:45:16.090Z,65.26
2023-01-29T09:46:51.443Z,65.01
2023-01-29T09:48:25.681Z,64.93
2023-01-29T09:49:59.018Z,64.80
2023-01-29T09:51:32.067Z,64.89
2023-01-29T09:53:06.794Z,64.62
2023-01-29T09:54:46.906Z,64.71
2023-01-29T09:56:19.985Z,64.62
2023-01-29T09:57:53.515Z,64.90
2023-01-29T09:59:26.745Z,64.57
2023-01-29T10:01:00.636Z,64.40
2023-01-29T10:02:43.899Z,64.59
2023-01-29T10:04:22.903Z,64.63
2023-01-29T10:06:05.068Z,64.82
2023-01-29T10:07:57.809Z,64.42
2023-01-29T10:09:53.320Z,64.30
2023-01-29T10:11:29.533Z,64.11
2023-01-29T10:13:05.502Z,63.80
2023-01-29T10:14:40.877Z,63.49
2023-01-29T10:16:19.442Z,63.63
2023-01-29T10:17:59.887Z,63.44
2023-01-29T10:19:41.064Z,63.15
2023-01-29T10:21:20.205Z,63.03
2023-01-29T10:22:56.715Z,62.74
2023-01-29T10:24:36.460Z,62.46
2023-01-29T10:26:11.126Z,62.64
2023-01-29T10:27:47.485Z,62.79
2023-01-29T10:29:19.966Z,62.52
2023-01-29T10:30:54.912Z,62.27
2023-01-29T10:32:27.041Z,62.03
2023-01-29T10:34:02.902Z,62.11
2023-01-29T10:35:38.268Z,61.57
2023-01-29T10:37:15.574Z,61.55
2023-01-29T10:38:48.507Z,61.40
2023-01-29T10:40:21.609Z,62.06
2023-01-29T10:42:00.884Z,62.18
2023-01-29T10:43:34.076Z,62.11
2023-01-29T10:45:13.031Z,61.78
2023-01-29T10:46:52.041Z,61.81
2023-01-29T10:48:38.413Z,61.89
2023-01-29T10:50:16.470Z,61.59
2023-01-29T10:51:56.363Z,61.88
2023-01-29T10:53:33.407Z,61.91
2023-01-29T10:55:15.015Z,62.03
2023-01-29T10:56:52.384Z,61.91
2023-01-29T10:58:29.743Z,61.92
2023-01-29T11:00:10.141Z,61.54
2023-01-29T11:01:41.923Z,61.29
2023-01-29T11:03:27.107Z,61.41
2023-01-29T11:04:59.580Z,61.76
2023-01-29T11:06:34.083Z,61.91
2023-01-29T11:08:08.583Z,62.09
2023-01-29T11:09:41.512Z,62.19
2023-01-29T11:11:13.763Z,61.69
2023-01-29T11:12:45.757Z,61.98
2023-01-29T11:14:21.749Z,62.13
2023-01-29T11:15:53.616Z,61.84
2023-01-29T11:17:25.885Z,61.47
2023-01-29T11:18:59.352Z,61.91
2023-01-29T11:20:31.855Z,61.75
2023-01-29T11:22:04.792Z,62.04
2023-01-29T11:23:36.285Z,62.08
2023-01-29T11:25:12.637Z,62.40
2023-01-29T11:26:46.196Z,62.36
2023-01-29T11:28:35.205Z,62.32
2023-01-29T11:30:15.037Z,62.56
2023-01-29T11:31:46.966Z,62.73
2023-01-29T11:33:19.684Z,62.48
2023-01-29T11:34:58.500Z,62.16
2023-01-29T11:36:34.040Z,62.20
2023-01-29T11:38:18.503Z,62.49
2023-01-29T11:39:50.616Z,62.70
2023-01-29T11:41:24.282Z,62.64
2023-01-29T11:42:55.860Z,62.49
2023-01-29T11:44:28.720Z,62.23
2023-01-29T11:46:02.530Z,62.47
2023-01-29T11:47:34.092Z,61.96
2023-01-29T11:49:14.298Z,62.21
2023-01-29T11:50:52.371Z,61.68
2023-01-29T11:52:24.541Z,61.87
2023-01-29T11:53:58.138Z,61.86
2023-01-29T11:55:40.938Z,61.70
2023-01-29T11:57:30.195Z,61.65
2023-01-29T11:59:04.599Z,61.64
2023-01-29T12:00:37.498Z,62.32
2023-01-29T12:02:18.699Z,61.60
2023-01-29T12:03:53.092Z,61.62
2023-01-29T12:05:26.045Z,61.85
2023-01-29T12:06:58.005Z,61.12
2023-01-29T12:08:32.128Z,61.13
2023-01-29T12:10:05.608Z,61.31
2023-01-29T12:11:37.552Z,61.34
2023-01-29T12:13:20.437Z,61.59
2023-01-29T12:15:02.071Z,61.17
2023-01-29T12:16:38.006Z,61.26
2023-01-29T12:18:14.088Z,61.12
2023-01-29T12:19:47.870Z,60.96
2023-01-29T12:21:23.933Z,61.31
2023-01-29T12:22:59.558Z,61.17
2023-01-29T12:24:34.460Z,61.37
2023-01-29T12:26:09.833Z,61.18
2023-01-29T12:27:46.305Z,60.98
2023-01-29T12:29:23.991Z,60.86
2023-01-29T12:31:04.879Z,61.34
2023-01-29T12:32:43.144Z,61.71
2023-01-29T12:34:19.439Z,61.65
2023-01-29T12:35:54.874Z,61.76
2023-01-29T12:37:30.570Z,61.22
2023-01-29T12:39:02.241Z,61.53
2023-01-29T12:40:37.831Z,60.88
2023-01-29T12:42:13.851Z,61.12
2023-01-29T12:43:47.951Z,61.40
2023-01-29T12:45:20.880Z,61.34
2023-01-29T12:46:54.464Z,60.95
2023-01-29T12:48:27.793Z,61.37
2023-01-29T12:50:02.334Z,61.42
2023-01-29T12:51:36.485Z,61.33
2023-01-29T12:53:16.418Z,61.34
2023-01-29T12:54:49.972Z,61.22
2023-01-29T12:56:26.177Z,61.35
2023-01-29T12:58:00.088Z,61.50
2023-01-29T12:59:36.790Z,61.08
2023-01-29T13:01:12.458Z,61.46
2023-01-29T13:02:48.601Z,60.98
2023-01-29T13:04:29.354Z,61.29
2023-01-29T13:06:02.692Z,61.73
2023-01-29T13:07:37.894Z,61.28
2023-01-29T13:09:11.780Z,61.19
2023-01-29T13:10:46.081Z,61.17
2023-01-29T13:12:18.539Z,61.28
2023-01-29T13:13:54.380Z,61.60
2023-01-29T13:15:28.722Z,61.01
2023-01-29T13:17:06.895Z,60.83
2023-01-29T13:18:42.072Z,60.79
2023-01-29T13:20:17.607Z,60.78
2023-01-29T13:21:50.904Z,61.12
2023-01-29T13:23:25.484Z,61.39
2023-01-29T13:25:04.508Z,60.84
2023-01-29T13:26:37.103Z,61.03
2023-01-29T13:28:16.378Z,61.33
2023-01-29T13:29:49.435Z,61.16
2023-01-29T13:31:25.586Z,61.08
2023-01-29T13:33:09.235Z,61.14
2023-01-29T13:34:45.011Z,61.32
2023-01-29T13:36:20.769Z,60.96
2023-01-29T13:37:53.740Z,60.75
2023-01-29T13:39:27.362Z,61.46
2023-01-29T13:41:01.826Z,61.26
2023-01-29T13:42:38.689Z,60.98
2023-01-29T13:44:20.110Z,60.98
2023-01-29T13:45:54.245Z,60.55
2023-01-29T13:47:27.444Z,60.32
2023-01-29T13:49:04.768Z,60.54
2023-01-29T13:50:37.572Z,60.48
2023-01-29T13:52:15.990Z,60.47
2023-01-29T13:53:53.723Z,60.62
2023-01-29T13:55:31.377Z,59.77
2023-01-29T13:57:03.350Z,59.58
2023-01-29T13:58:49.693Z,59.94
2023-01-29T14:00:39.672Z,59.97
2023-01-29T14:02:24.056Z,59.96
2023-01-29T14:04:04.571Z,59.85
2023-01-29T14:05:40.736Z,60.09
2023-01-29T14:07:27.105Z,60.07
2023-01-29T14:09:00.635Z,59.68
2023-01-29T14:10:33.438Z,60.14
2023-01-29T14:12:05.393Z,59.71
2023-01-29T14:13:37.195Z,59.86
2023-01-29T14:15:22.585Z,59.40
2023-01-29T14:17:00.709Z,59.29
2023-01-29T14:18:34.678Z,59.02
2023-01-29T14:20:17.435Z,59.09
2023-01-29T14:21:50.140Z,58.84
2023-01-29T14:23:24.062Z,58.80
2023-01-29T14:24:56.924Z,58.64
2023-01-29T14:26:30.316Z,58.75
2023-01-29T14:28:03.109Z,58.97
2023-01-29T14:29:39.344Z,58.85
2023-01-29T14:31:11.106Z,59.08
2023-01-29T14:32:47.550Z,59.25
2023-01-29T14:34:26.396Z,59.33
2023-01-29T14:35:58.264Z,58.94
2023-01-29T14:37:32.662Z,59.35
2023-01-29T14:39:06.701Z,59.41
2023-01-29T14:40:41.350Z,59.18
2023-01-29T14:42:19.087Z,59.40
2023-01-29T14:43:50.818Z,59.24
2023-01-29T14:45:23.474Z,59.66
2023-01-29T14:46:54.998Z,59.68
2023-01-29T14:48:36.986Z,59.63
2023-01-29T14:50:23.421Z,59.38
2023-01-29T14:51:56.532Z,59.51
2023-01-29T14:53:31.609Z,60.04
2023-01-29T14:55:05.639Z,59.54
2023-01-29T14:56:40.496Z,59.96
2023-01-29T14:58:14.474Z,59.67
2023-01-29T14:59:49.313Z,59.97
2023-01-29T15:01:23.252Z,59.68
2023-01-29T15:03:02.091Z,59.55
2023-01-29T15:04:38.395Z,60.30
2023-01-29T15:06:15.375Z,60.52
2023-01-29T15:07:53.393Z,60.84
2023-01-29T15:09:36.502Z,60.41
2023-01-29T15:11:31.170Z,60.08
2023-01-29T15:13:04.826Z,60.17
2023-01-29T15:14:38.282Z,60.89
2023-01-29T15:16:14.712Z,60.47
2023-01-29T15:17:52.372Z,60.32
2023-01-29T15:19:26.815Z,60.88
2023-01-29T15:21:03.412Z,61.02
2023-01-29T15:22:42.553Z,60.80
2023-01-29T15:24:15.423Z,61.22
2023-01-29T15:25:48.250Z,60.80
2023-01-29T15:27:20.402Z,61.16
2023-01-29T15:29:02.122Z,61.17
2023-01-29T15:30:36.256Z,61.16
2023-01-29T15:32:11.020Z,61.44
2023-01-29T15:33:44.783Z,61.17
2023-01-29T15:35:26.349Z,61.23
2023-01-29T15:36:57.939Z,61.28
2023-01-29T15:38:29.590Z,61.37
2023-01-29T15:40:06.826Z,61.86
2023-01-29T15:41:39.478Z,61.41
2023-01-29T15:43:28.801Z,61.29
2023-01-29T15:45:00.410Z,61.65
2023-01-29T15:46:34.264Z,61.83
2023-01-29T15:48:08.503Z,61.88
2023-01-29T15:49:40.171Z,61.99
2023-01-29T15:51:15.578Z,61.91
2023-01-29T15:52:48.873Z,62.03
2023-01-29T15:54:20.421Z,61.90
2023-01-29T15:55:53.788Z,62.15
2023-01-29T15:57:35.293Z,62.15
2023-01-29T15:59:09.713Z,62.13
2023-01-29T16:00:48.199Z,62.25
2023-01-29T16:02:27.520Z,62.30
2023-01-29T16:04:02.972Z,62.33
2023-01-29T16:05:35.163Z,62.31
2023-01-29T16:07:07.106Z,61.94
2023-01-29T16:08:39.573Z,62.37
2023-01-29T16:10:16.402Z,62.43
2023-01-29T16:11:50.459Z,61.96
2023-01-29T16:13:22.930Z,62.13
2023-01-29T16:14:55.311Z,61.74
2023-01-29T16:16:27.925Z,62.10
2023-01-29T16:18:00.726Z,61.98
2023-01-29T16:19:32.575Z,62.26
2023-01-29T16:21:06.534Z,61.98
2023-01-29T16:22:38.361Z,61.97
2023-01-29T16:24:11.847Z,62.31
2023-01-29T16:25:43.524Z,62.03
2023-01-29T16:27:16.493Z,62.29
2023-01-29T16:28:48.319Z,62.39
2023-01-29T16:30:20.058Z,62.54
2023-01-29T16:31:53.247Z,62.44
2023-01-29T16:33:28.619Z,62.74
2023-01-29T16:35:00.340Z,62.40
2023-01-29T16:36:32.092Z,62.24
2023-01-29T16:38:06.308Z,62.46
2023-01-29T16:39:39.588Z,62.42
2023-01-29T16:41:16.292Z,63.00
2023-01-29T16:42:49.190Z,62.58
2023-01-29T16:44:35.319Z,63.08
2023-01-29T16:46:15.927Z,63.03
2023-01-29T16:47:59.468Z,63.03
2023-01-29T16:49:43.743Z,62.83
2023-01-29T16:51:17.621Z,63.06
2023-01-29T16:52:57.375Z,62.92
2023-01-29T16:54:29.567Z,63.10
2023-01-29T16:56:03.654Z,62.91
2023-01-29T16:57:35.227Z,62.86
2023-01-29T16:59:16.632Z,62.66
2023-01-29T17:00:49.835Z,62.63
2023-01-29T17:02:23.928Z,63.13
2023-01-29T17:04:07.645Z,62.49
2023-01-29T17:05:39.275Z,62.73
2023-01-29T17:07:16.189Z,62.55
2023-01-29T17:08:48.075Z,62.74
2023-01-29T17:10:20.862Z,62.99
2023-01-29T17:11:55.896Z,62.91
2023-01-29T17:13:29.097Z,62.46
2023-01-29T17:15:03.067Z,62.58
2023-01-29T17:16:37.422Z,62.21
2023-01-29T17:18:15.521Z,62.72
2023-01-29T17:19:47.244Z,62.97
2023-01-29T17:21:18.734Z,62.83
2023-01-29T17:22:50.383Z,62.74
2023-01-29T17:24:21.928Z,63.01
2023-01-29T17:25:53.837Z,62.89
2023-01-29T17:27:26.751Z,62.97
2023-01-29T17:28:58.280Z,62.87
2023-01-29T17:30:33.781Z,63.04
2023-01-29T17:32:05.628Z,62.82
2023-01-29T17:33:38.375Z,62.74
2023-01-29T17:35:11.899Z,62.71
2023-01-29T17:36:43.731Z,62.50
2023-01-29T17:38:25.633Z,63.13
2023-01-29T17:39:59.398Z,62.95
2023-01-29T17:41:31.656Z,62.86
2023-01-29T17:43:03.332Z,62.36
2023-01-29T17:44:34.847Z,62.94
2023-01-29T17:46:09.919Z,62.93
2023-01-29T17:47:41.417Z,62.32
2023-01-29T17:49:22.596Z,62.64
2023-01-29T17:50:55.154Z,62.32
2023-01-29T17:52:26.637Z,62.88
2023-01-29T17:53:58.366Z,62.89
2023-01-29T17:55:29.849Z,62.28
2023-01-29T17:57:01.381Z,62.68
2023-01-29T17:58:32.924Z,62.54
2023-01-29T18:00:09.595Z,62.64
2023-01-29T18:01:42.887Z,62.78
2023-01-29T18:03:14.771Z,62.44
2023-01-29T18:04:50.816Z,62.59
2023-01-29T18:06:24.693Z,62.67
2023-01-29T18:07:56.211Z,62.39
2023-01-29T18:09:27.926Z,62.07
2023-01-29T18:10:59.702Z,62.25
2023-01-29T18:12:31.262Z,62.43
2023-01-29T18:14:14.291Z,62.94
2023-01-29T18:15:46.053Z,62.43
2023-01-29T18:17:22.397Z,62.88
2023-01-29T18:18:53.949Z,62.65
2023-01-29T18:20:25.726Z,62.83
2023-01-29T18:21:57.247Z,62.94
2023-01-29T18:23:31.642Z,62.20
2023-01-29T18:25:03.340Z,62.77
2023-01-29T18:26:35.838Z,62.36
2023-01-29T18:28:07.564Z,63.17
2023-01-29T18:29:39.166Z,62.52
2023-01-29T18:31:13.977Z,62.84
2023-01-29T18:32:48.218Z,62.40
2023-01-29T18:34:19.762Z,63.32
2023-01-29T18:35:51.250Z,63.03
2023-01-29T18:37:22.745Z,62.98
2023-01-29T18:38:55.307Z,62.28
2023-01-29T18:40:27.046Z,62.95
2023-01-29T18:41:58.774Z,63.01
2023-01-29T18:43:30.349Z,62.53
2023-01-29T18:45:01.991Z,62.88
2023-01-29T18:46:33.554Z,62.63
2023-01-29T18:48:06.987Z,63.20
2023-01-29T18:49:39.226Z,62.85
2023-01-29T18:51:10.892Z,63.56
2023-01-29T18:52:43.212Z,63.46
2023-01-29T18:54:14.828Z,63.68
2023-01-29T18:55:53.943Z,63.21
2023-01-29T18:58:26.617Z,63.38
2023-01-29T18:59:17.054Z,63.09
2023-01-29T19:00:48.804Z,64.00
2023-01-29T19:02:20.408Z,63.93
2023-01-29T19:03:53.851Z,64.04
2023-01-29T19:05:25.627Z,63.78
2023-01-29T19:06:57.175Z,64.11
2023-01-29T19:08:28.669Z,63.93
2023-01-29T19:10:04.672Z,63.87
2023-01-29T19:11:36.134Z,63.98
2023-01-29T19:13:07.660Z,64.20
2023-01-29T19:14:39.161Z,63.96
2023-01-29T19:16:11.953Z,64.21
2023-01-29T19:17:43.428Z,64.01
2023-01-29T19:19:16.755Z,64.31
2023-01-29T19:20:50.321Z,64.56
2023-01-29T19:22:21.854Z,64.30
2023-01-29T19:23:53.322Z,64.58
2023-01-29T19:25:24.874Z,64.38
2023-01-29T19:26:56.451Z,64.62
2023-01-29T19:28:27.992Z,64.38
2023-01-29T19:29:59.562Z,64.58
2023-01-29T19:31:31.950Z,64.83
2023-01-29T19:33:03.867Z,64.71
2023-01-29T19:34:36.780Z,64.36
2023-01-29T19:36:10.332Z,64.92
2023-01-29T19:37:41.904Z,64.43
2023-01-29T19:39:14.600Z,64.30
2023-01-29T19:40:46.053Z,64.71
2023-01-29T19:42:17.549Z,64.88
2023-01-29T19:43:49.201Z,64.89
2023-01-29T19:45:42.938Z,65.18
2023-01-29T19:47:17.251Z,64.96
2023-01-29T19:48:48.987Z,65.12
2023-01-29T19:50:22.349Z,65.09
2023-01-29T19:51:55.965Z,65.34
2023-01-29T19:53:28.182Z,65.15
2023-01-29T19:55:00.008Z,65.45
2023-01-29T19:56:34.167Z,65.91
2023-01-29T19:58:05.585Z,66.19
2023-01-29T19:59:37.105Z,66.63
2023-01-29T20:01:13.330Z,66.80
2023-01-29T20:02:44.839Z,66.71
2023-01-29T20:04:16.273Z,67.17
2023-01-29T20:05:49.144Z,66.66
2023-01-29T20:07:20.739Z,67.40
2023-01-29T20:08:52.357Z,67.37
2023-01-29T20:10:23.904Z,67.43
2023-01-29T20:11:55.365Z,67.12
2023-01-29T20:13:26.902Z,66.92
2023-01-29T20:14:58.515Z,66.99
2023-01-29T20:16:30.200Z,67.25
2023-01-29T20:18:01.872Z,67.28
2023-01-29T20:19:36.349Z,67.68
2023-01-29T20:21:11.237Z,67.67
2023-01-29T20:22:42.950Z,68.10